Time;durP1;ratioP1;P1;durP2;ratioP2;P2;SDS_P1;SDS_P2;PMS_P1;PMS_P2;Temp;Humidity;BMP_temperature;BMP_pressure;BME280_temperature;BME280_humidity;BME280_pressure;Samples;Min_cycle;Max_cycle;Signal;HPM_P1;HPM_P2
2022/07/15 00:00:52;;;;;;;2.40;1.85;;;;;;;;;;4380092;32;20097;-65
2022/07/15 00:03:19;;;;;;;1.90;1.67;;;;;;;;;;4382055;32;20101;-65
2022/07/15 00:05:46;;;;;;;2.20;2.00;;;;;;;;;;4409215;32;20160;-65
2022/07/15 00:08:13;;;;;;;2.40;2.00;;;;;;;;;;4382193;32;20103;-66
2022/07/15 00:10:39;;;;;;;2.58;2.17;;;;;;;;;;4381819;32;20523;-65
2022/07/15 00:13:06;;;;;;;2.65;1.70;;;;;;;;;;4381754;32;20575;-65
2022/07/15 00:15:33;;;;;;;2.67;2.12;;;;;;;;;;4408513;32;20145;-66
2022/07/15 00:18:04;;;;;;;2.17;1.92;;;;;;;;;;4382063;32;20081;-65
2022/07/15 00:20:34;;;;;;;2.75;1.98;;;;;;;;;;4395457;32;20085;-65
2022/07/15 00:23:03;;;;;;;3.55;2.05;;;;;;;;;;4395299;32;20077;-65
2022/07/15 00:25:29;;;;;;;2.90;2.15;;;;;;;;;;4395023;32;20082;-64
2022/07/15 00:28:05;;;;;;;2.12;1.90;;;;;;;;;;4381660;32;20084;-65
2022/07/15 00:30:37;;;;;;;2.33;2.10;;;;;;;;;;4381718;32;20447;-65
2022/07/15 00:33:04;;;;;;;2.45;1.90;;;;;;;;;;4394794;32;20062;-65
2022/07/15 00:35:32;;;;;;;2.33;2.10;;;;;;;;;;4382532;32;20070;-65
2022/07/15 00:37:59;;;;;;;2.75;2.12;;;;;;;;;;4394058;32;20100;-66
2022/07/15 00:40:26;;;;;;;2.78;2.03;;;;;;;;;;4381467;32;20154;-64
2022/07/15 00:42:53;;;;;;;2.28;1.77;;;;;;;;;;4381473;32;20074;-65
2022/07/15 00:45:22;;;;;;;3.45;2.50;;;;;;;;;;4381621;32;20093;-65
2022/07/15 00:47:50;;;;;;;2.70;2.12;;;;;;;;;;4394721;32;20065;-65
2022/07/15 00:50:19;;;;;;;2.92;2.30;;;;;;;;;;4394506;32;20150;-65
2022/07/15 00:53:26;;;;;;;2.17;1.83;;;;;;;;;;4381225;32;20508;-65
2022/07/15 00:55:56;;;;;;;4.45;1.92;;;;;;;;;;4365708;32;20160;-65
2022/07/15 00:58:24;;;;;;;2.75;2.20;;;;;;;;;;4382034;32;20081;-65
2022/07/15 01:00:51;;;;;;;3.03;2.28;;;;;;;;;;4381387;32;20088;-65
2022/07/15 01:03:18;;;;;;;2.92;2.00;;;;;;;;;;4394298;32;20078;-64
2022/07/15 01:05:48;;;;;;;2.78;2.35;;;;;;;;;;4381042;32;20057;-65
2022/07/15 01:08:17;;;;;;;3.42;2.90;;;;;;;;;;4394635;32;20081;-65
2022/07/15 01:10:44;;;;;;;3.33;2.47;;;;;;;;;;4394242;32;20090;-65
2022/07/15 01:13:11;;;;;;;3.85;2.58;;;;;;;;;;4394369;32;20088;-65
2022/07/15 01:15:37;;;;;;;5.40;3.00;;;;;;;;;;4407523;32;20161;-65
2022/07/15 01:18:04;;;;;;;4.15;3.17;;;;;;;;;;4393566;32;20530;-65
2022/07/15 01:20:32;;;;;;;4.70;2.87;;;;;;;;;;4368312;32;20595;-65
2022/07/15 01:22:59;;;;;;;4.40;2.72;;;;;;;;;;4381265;32;20093;-64
2022/07/15 01:25:26;;;;;;;4.00;2.85;;;;;;;;;;4368924;32;20082;-65
2022/07/15 01:27:53;;;;;;;4.18;3.15;;;;;;;;;;4393491;32;20099;-65
2022/07/15 01:30:20;;;;;;;4.20;3.35;;;;;;;;;;4407292;32;20077;-65
2022/07/15 01:32:46;;;;;;;4.53;3.50;;;;;;;;;;4380885;32;20078;-65
2022/07/15 01:35:13;;;;;;;8.80;3.70;;;;;;;;;;4392969;32;20528;-65
2022/07/15 01:37:40;;;;;;;4.87;4.05;;;;;;;;;;4393323;32;20217;-65
2022/07/15 01:40:08;;;;;;;5.15;3.47;;;;;;;;;;4368378;32;20147;-65
2022/07/15 01:42:34;;;;;;;4.95;3.53;;;;;;;;;;4368453;32;20089;-65
2022/07/15 01:45:01;;;;;;;4.45;3.50;;;;;;;;;;4380791;32;20156;-64
2022/07/15 01:47:28;;;;;;;5.05;3.40;;;;;;;;;;4393110;32;20537;-65
2022/07/15 01:49:55;;;;;;;4.45;3.30;;;;;;;;;;4380518;32;20467;-65
2022/07/15 01:52:22;;;;;;;4.20;3.10;;;;;;;;;;4380457;32;20166;-64
2022/07/15 01:54:48;;;;;;;4.95;3.12;;;;;;;;;;4393150;32;20082;-65
2022/07/15 01:57:15;;;;;;;4.43;3.15;;;;;;;;;;4380985;32;20081;-66
2022/07/15 01:59:42;;;;;;;3.95;2.92;;;;;;;;;;4380452;32;20572;-65
2022/07/15 02:02:09;;;;;;;3.87;3.22;;;;;;;;;;4380383;32;20459;-65
2022/07/15 02:04:37;;;;;;;6.03;3.30;;;;;;;;;;4368233;32;20104;-65
2022/07/15 02:07:04;;;;;;;4.68;3.30;;;;;;;;;;4380417;32;20073;-65
2022/07/15 02:09:31;;;;;;;4.95;3.08;;;;;;;;;;4381146;32;20085;-65
2022/07/15 02:11:58;;;;;;;5.03;3.30;;;;;;;;;;4380276;32;20168;-65
2022/07/15 02:14:24;;;;;;;5.32;3.12;;;;;;;;;;4380540;32;20077;-66
2022/07/15 02:16:51;;;;;;;4.37;3.20;;;;;;;;;;4380105;32;20092;-65
2022/07/15 02:19:18;;;;;;;4.37;2.80;;;;;;;;;;4367805;32;20500;-65
2022/07/15 02:21:45;;;;;;;3.70;2.67;;;;;;;;;;4392784;32;20086;-65
2022/07/15 02:24:11;;;;;;;5.03;2.80;;;;;;;;;;4392365;32;20081;-65
2022/07/15 02:26:38;;;;;;;2.80;2.50;;;;;;;;;;4380402;32;20177;-66
2022/07/15 02:29:05;;;;;;;5.20;3.35;;;;;;;;;;4379785;32;20165;-65
2022/07/15 02:31:32;;;;;;;5.03;2.85;;;;;;;;;;4367793;32;20081;-65
2022/07/15 02:33:58;;;;;;;3.87;3.10;;;;;;;;;;4379986;32;20162;-65
2022/07/15 02:36:25;;;;;;;4.72;2.95;;;;;;;;;;4380255;32;20108;-65
2022/07/15 02:38:52;;;;;;;6.80;3.08;;;;;;;;;;4406448;32;20545;-65
2022/07/15 02:41:19;;;;;;;6.28;3.45;;;;;;;;;;4380235;32;20058;-65
2022/07/15 02:43:45;;;;;;;6.15;3.03;;;;;;;;;;4380551;32;20103;-65
2022/07/15 02:46:12;;;;;;;4.35;2.85;;;;;;;;;;4380636;32;20092;-65
2022/07/15 02:48:39;;;;;;;3.90;2.78;;;;;;;;;;4406362;32;20084;-65
2022/07/15 02:51:06;;;;;;;3.17;2.65;;;;;;;;;;4392732;32;20069;-65
2022/07/15 02:53:33;;;;;;;3.17;2.60;;;;;;;;;;4379947;32;20515;-65
2022/07/15 02:56:01;;;;;;;3.85;2.90;;;;;;;;;;4380041;32;20076;-65
2022/07/15 02:58:30;;;;;;;4.03;2.45;;;;;;;;;;4392632;32;20095;-65
2022/07/15 03:00:57;;;;;;;3.45;2.40;;;;;;;;;;4392636;32;20141;-65
2022/07/15 03:03:27;;;;;;;2.33;2.12;;;;;;;;;;4379740;32;20447;-65
2022/07/15 03:05:57;;;;;;;3.05;2.20;;;;;;;;;;4406556;32;20084;-65
2022/07/15 03:08:24;;;;;;;2.75;2.20;;;;;;;;;;4379940;32;20091;-65
2022/07/15 03:10:50;;;;;;;4.22;2.58;;;;;;;;;;4392081;32;20100;-64
2022/07/15 03:13:17;;;;;;;3.78;2.33;;;;;;;;;;4380234;32;20492;-65
2022/07/15 03:15:44;;;;;;;5.95;2.50;;;;;;;;;;4392421;32;20080;-65
2022/07/15 03:18:11;;;;;;;5.00;2.55;;;;;;;;;;4379825;32;20065;-65
2022/07/15 03:20:37;;;;;;;3.42;2.55;;;;;;;;;;4406414;32;20145;-65
2022/07/15 03:23:04;;;;;;;5.10;2.60;;;;;;;;;;4380212;32;20080;-66
2022/07/15 03:25:30;;;;;;;2.87;2.28;;;;;;;;;;4391984;32;20066;-65
2022/07/15 03:27:57;;;;;;;3.15;2.08;;;;;;;;;;4392299;32;20077;-65
2022/07/15 03:30:24;;;;;;;2.85;2.40;;;;;;;;;;4392210;32;20158;-64
2022/07/15 03:32:51;;;;;;;2.90;2.40;;;;;;;;;;4379977;32;20073;-65
2022/07/15 03:35:18;;;;;;;3.12;2.25;;;;;;;;;;4391930;32;20076;-65
2022/07/15 03:37:45;;;;;;;2.50;2.30;;;;;;;;;;4394781;32;20162;-66
2022/07/15 03:40:24;;;;;;;3.03;2.25;;;;;;;;;;3857663;37;20077;-66
2022/07/15 03:42:52;;;;;;;4.20;2.50;;;;;;;;;;4406607;32;20156;-66
2022/07/15 03:45:19;;;;;;;3.25;2.28;;;;;;;;;;4406026;32;20587;-65
2022/07/15 03:47:46;;;;;;;3.05;2.17;;;;;;;;;;4405728;32;20173;-65
2022/07/15 03:50:13;;;;;;;2.60;1.98;;;;;;;;;;4419439;32;20069;-65
2022/07/15 03:52:39;;;;;;;3.72;2.37;;;;;;;;;;4418278;32;20146;-65
2022/07/15 03:55:09;;;;;;;2.22;2.03;;;;;;;;;;4418178;32;20159;-65
2022/07/15 03:57:36;;;;;;;2.97;2.40;;;;;;;;;;4392864;32;20563;-65
2022/07/15 04:00:03;;;;;;;10.35;2.10;;;;;;;;;;4393301;32;20096;-66
2022/07/15 04:02:30;;;;;;;2.58;2.00;;;;;;;;;;4405070;32;20468;-65
2022/07/15 04:04:57;;;;;;;2.20;1.95;;;;;;;;;;4419285;32;20167;-65
2022/07/15 04:07:23;;;;;;;2.85;2.10;;;;;;;;;;4417814;32;20496;-65
2022/07/15 04:09:50;;;;;;;3.30;2.12;;;;;;;;;;4419429;32;20069;-65
2022/07/15 04:12:17;;;;;;;4.37;2.20;;;;;;;;;;4418095;32;20157;-63
2022/07/15 04:14:44;;;;;;;3.58;2.37;;;;;;;;;;4405305;32;20498;-65
2022/07/15 04:17:10;;;;;;;4.68;2.35;;;;;;;;;;4405164;32;20166;-66
2022/07/15 04:19:37;;;;;;;4.32;2.10;;;;;;;;;;4419279;32;20084;-66
2022/07/15 04:22:04;;;;;;;3.72;2.47;;;;;;;;;;4405448;32;20503;-65
2022/07/15 04:24:31;;;;;;;2.15;1.92;;;;;;;;;;4405173;32;20085;-65
2022/07/15 04:26:57;;;;;;;2.28;2.08;;;;;;;;;;4404973;32;20184;-64
2022/07/15 04:29:24;;;;;;;2.50;2.05;;;;;;;;;;4419294;32;20153;-65
2022/07/15 04:31:51;;;;;;;2.35;2.10;;;;;;;;;;4404745;32;20085;-65
2022/07/15 04:34:18;;;;;;;2.45;2.10;;;;;;;;;;4404930;32;20117;-65
2022/07/15 04:36:44;;;;;;;2.62;2.00;;;;;;;;;;4404989;32;20084;-65
2022/07/15 04:39:11;;;;;;;3.55;2.12;;;;;;;;;;4404471;32;20073;-65
2022/07/15 04:41:38;;;;;;;2.22;2.03;;;;;;;;;;4419321;32;20085;-66
2022/07/15 04:44:05;;;;;;;2.30;1.80;;;;;;;;;;4418718;32;20447;-65
2022/07/15 04:46:31;;;;;;;2.40;2.08;;;;;;;;;;4418732;32;20069;-65
2022/07/15 04:51:54;;;;;;;2.72;2.10;;;;;;;;;;4366975;32;20093;-66
2022/07/15 04:54:21;;;;;;;3.08;2.12;;;;;;;;;;4394716;32;20149;-65
2022/07/15 04:56:48;;;;;;;2.60;1.92;;;;;;;;;;4394519;32;20519;-65
2022/07/15 04:59:15;;;;;;;2.40;1.83;;;;;;;;;;4407205;32;20177;-66
2022/07/15 05:01:41;;;;;;;2.45;1.80;;;;;;;;;;4394312;32;20527;-65
2022/07/15 05:04:08;;;;;;;4.45;2.03;;;;;;;;;;4408539;32;20089;-66
2022/07/15 05:06:36;;;;;;;2.12;1.85;;;;;;;;;;4382269;32;20572;-66
2022/07/15 05:09:03;;;;;;;1.58;1.45;;;;;;;;;;4408231;32;20508;-65
2022/07/15 05:11:30;;;;;;;2.75;2.00;;;;;;;;;;4394118;32;20157;-66
2022/07/15 05:13:57;;;;;;;4.53;2.42;;;;;;;;;;4407405;32;20085;-66
2022/07/15 05:16:23;;;;;;;2.33;1.80;;;;;;;;;;4382117;32;20073;-65
2022/07/15 05:18:50;;;;;;;4.10;1.70;;;;;;;;;;4381688;32;20073;-65
2022/07/15 05:21:17;;;;;;;1.75;1.60;;;;;;;;;;4394696;32;20495;-65
2022/07/15 05:23:43;;;;;;;2.42;1.95;;;;;;;;;;4381270;32;20085;-65
2022/07/15 05:26:11;;;;;;;3.00;1.92;;;;;;;;;;4406425;32;20080;-65
2022/07/15 05:28:41;;;;;;;1.85;1.75;;;;;;;;;;4382265;32;20089;-65
2022/07/15 05:31:08;;;;;;;2.60;2.00;;;;;;;;;;4394423;32;20089;-65
2022/07/15 05:33:34;;;;;;;2.22;2.00;;;;;;;;;;4381290;32;20088;-65
2022/07/15 05:36:01;;;;;;;2.28;2.08;;;;;;;;;;4381499;32;20144;-66
2022/07/15 05:38:28;;;;;;;2.90;1.87;;;;;;;;;;4406095;32;20085;-65
2022/07/15 05:40:55;;;;;;;3.12;2.12;;;;;;;;;;4381772;32;20077;-65
2022/07/15 05:43:21;;;;;;;2.75;1.73;;;;;;;;;;4406218;32;20145;-65
2022/07/15 05:45:48;;;;;;;2.05;1.75;;;;;;;;;;4381621;32;20129;-65
2022/07/15 05:48:15;;;;;;;3.08;2.20;;;;;;;;;;4406790;32;20165;-65
2022/07/15 05:50:42;;;;;;;2.40;2.00;;;;;;;;;;4381035;32;20070;-65
2022/07/15 05:53:09;;;;;;;2.28;1.95;;;;;;;;;;4406033;32;20421;-65
2022/07/15 05:55:35;;;;;;;3.30;1.90;;;;;;;;;;4393670;32;20097;-65
2022/07/15 05:58:08;;;;;;;2.90;1.87;;;;;;;;;;4406249;32;20170;-65
2022/07/15 06:00:37;;;;;;;3.08;2.15;;;;;;;;;;4381120;32;20506;-65
2022/07/15 06:03:04;;;;;;;3.22;2.25;;;;;;;;;;4393083;32;20662;-65
2022/07/15 06:05:31;;;;;;;2.72;2.00;;;;;;;;;;4406055;32;20153;-65
2022/07/15 06:07:58;;;;;;;3.62;2.15;;;;;;;;;;4393867;32;20093;-65
2022/07/15 06:10:25;;;;;;;4.37;2.17;;;;;;;;;;4393915;32;20189;-65
2022/07/15 06:12:55;;;;;;;3.60;2.25;;;;;;;;;;4380591;32;20089;-65
2022/07/15 06:15:23;;;;;;;2.37;2.15;;;;;;;;;;4380911;32;20076;-65
2022/07/15 06:17:50;;;;;;;2.22;1.87;;;;;;;;;;4393582;32;20097;-64
2022/07/15 06:20:17;;;;;;;2.37;2.00;;;;;;;;;;4380593;32;20437;-65
2022/07/15 06:22:45;;;;;;;2.50;2.17;;;;;;;;;;4393658;32;20112;-65
2022/07/15 06:25:12;;;;;;;2.15;1.95;;;;;;;;;;4406504;32;20085;-65
2022/07/15 06:27:39;;;;;;;2.10;1.90;;;;;;;;;;4393214;32;20064;-65
2022/07/15 06:30:06;;;;;;;2.92;2.45;;;;;;;;;;4405567;32;20070;-65
2022/07/15 06:32:33;;;;;;;2.37;2.10;;;;;;;;;;4380359;32;20097;-65
2022/07/15 06:35:00;;;;;;;2.83;2.28;;;;;;;;;;4405715;32;20087;-66
2022/07/15 06:37:30;;;;;;;3.40;2.20;;;;;;;;;;4392955;32;20532;-65
2022/07/15 06:39:57;;;;;;;3.97;2.17;;;;;;;;;;4392886;32;20074;-65
2022/07/15 06:42:23;;;;;;;3.42;1.92;;;;;;;;;;4405771;32;20089;-65
2022/07/15 06:44:50;;;;;;;3.30;2.05;;;;;;;;;;4406873;32;20065;-65
2022/07/15 06:47:17;;;;;;;2.75;2.03;;;;;;;;;;4405300;32;20069;-65
2022/07/15 06:49:44;;;;;;;2.20;2.00;;;;;;;;;;4380822;32;20096;-65
2022/07/15 06:52:10;;;;;;;3.80;2.22;;;;;;;;;;4380363;32;20097;-64
2022/07/15 06:57:17;;;;;;;2.15;1.95;;;;;;;;;;3857374;37;20484;-65
2022/07/15 06:59:44;;;;;;;4.30;2.25;;;;;;;;;;4418349;32;20076;-66
2022/07/15 07:02:11;;;;;;;2.78;1.92;;;;;;;;;;4405663;32;20191;-65
2022/07/15 07:04:38;;;;;;;1.90;1.80;;;;;;;;;;4405751;32;20500;-65
2022/07/15 07:07:05;;;;;;;2.90;2.25;;;;;;;;;;4418228;32;20077;-65
2022/07/15 07:09:32;;;;;;;2.92;2.05;;;;;;;;;;4405920;32;20089;-65
2022/07/15 07:11:58;;;;;;;2.50;2.30;;;;;;;;;;4405263;32;20084;-65
2022/07/15 07:14:25;;;;;;;2.17;1.98;;;;;;;;;;4392601;32;20065;-64
2022/07/15 07:16:52;;;;;;;2.40;2.00;;;;;;;;;;4405089;32;20520;-64
2022/07/15 07:19:19;;;;;;;2.78;2.20;;;;;;;;;;4393323;32;20068;-65
2022/07/15 07:21:46;;;;;;;2.90;2.25;;;;;;;;;;4420214;32;20091;-65
2022/07/15 07:24:13;;;;;;;3.20;2.20;;;;;;;;;;4418108;32;20084;-66
2022/07/15 07:26:39;;;;;;;2.85;2.00;;;;;;;;;;4405204;32;20116;-66
2022/07/15 07:29:06;;;;;;;2.25;2.00;;;;;;;;;;4418259;32;20076;-65
2022/07/15 07:31:33;;;;;;;2.35;2.12;;;;;;;;;;4405557;32;20077;-66
2022/07/15 07:34:00;;;;;;;2.50;2.30;;;;;;;;;;4392793;32;20093;-66
2022/07/15 07:36:27;;;;;;;2.35;1.98;;;;;;;;;;4405110;32;20082;-67
2022/07/15 07:38:54;;;;;;;2.92;2.00;;;;;;;;;;4418084;32;20089;-67
2022/07/15 07:41:24;;;;;;;3.83;2.10;;;;;;;;;;4392325;32;20081;-67
2022/07/15 07:43:51;;;;;;;2.00;1.80;;;;;;;;;;4412402;32;20131;-65
2022/07/15 07:46:17;;;;;;;1.83;1.73;;;;;;;;;;4417600;32;20088;-64
2022/07/15 07:48:44;;;;;;;2.92;2.10;;;;;;;;;;4417807;32;20073;-64
2022/07/15 07:51:11;;;;;;;2.15;1.95;;;;;;;;;;4417800;32;20095;-64
2022/07/15 07:53:37;;;;;;;3.33;2.28;;;;;;;;;;4419160;32;20096;-64
2022/07/15 07:56:05;;;;;;;2.67;2.03;;;;;;;;;;4418495;32;20156;-66
2022/07/15 07:58:31;;;;;;;2.65;2.00;;;;;;;;;;4405072;32;20089;-65
2022/07/15 08:00:58;;;;;;;4.22;2.10;;;;;;;;;;4392181;32;20097;-64
2022/07/15 08:03:27;;;;;;;2.47;2.20;;;;;;;;;;4404617;32;20522;-64
2022/07/15 08:05:54;;;;;;;4.30;2.40;;;;;;;;;;4417728;32;20165;-67
2022/07/15 08:08:22;;;;;;;3.22;2.40;;;;;;;;;;4395856;32;20070;-67
2022/07/15 08:10:53;;;;;;;2.70;2.10;;;;;;;;;;4394457;32;20072;-68
2022/07/15 08:13:21;;;;;;;3.00;2.30;;;;;;;;;;4394668;32;20077;-66
2022/07/15 08:15:49;;;;;;;2.42;2.20;;;;;;;;;;4394345;32;20076;-67
2022/07/15 08:18:18;;;;;;;5.10;2.20;;;;;;;;;;4394632;32;20145;-68
2022/07/15 08:20:48;;;;;;;3.42;2.60;;;;;;;;;;4394790;32;20069;-68
2022/07/15 08:23:20;;;;;;;2.47;2.17;;;;;;;;;;4408140;32;20574;-69
2022/07/15 08:25:49;;;;;;;2.83;2.30;;;;;;;;;;4394137;32;20158;-69
2022/07/15 08:28:15;;;;;;;3.25;2.55;;;;;;;;;;4407408;32;20520;-68
2022/07/15 08:30:42;;;;;;;3.90;2.40;;;;;;;;;;4394116;32;20153;-69
2022/07/15 08:33:09;;;;;;;3.17;2.30;;;;;;;;;;4406834;32;20190;-68
2022/07/15 08:35:36;;;;;;;2.42;2.22;;;;;;;;;;4406328;32;20536;-69
2022/07/15 08:38:07;;;;;;;2.80;2.30;;;;;;;;;;4406468;32;20069;-69
2022/07/15 08:40:37;;;;;;;5.28;2.50;;;;;;;;;;4394800;32;20185;-68
2022/07/15 08:43:11;;;;;;;4.00;2.60;;;;;;;;;;4406904;32;20091;-68
2022/07/15 08:45:39;;;;;;;2.60;2.40;;;;;;;;;;4391688;32;20089;-68
2022/07/15 08:48:08;;;;;;;2.75;2.05;;;;;;;;;;4378712;32;20524;-69
2022/07/15 08:50:36;;;;;;;2.78;2.42;;;;;;;;;;4378956;32;20077;-69
2022/07/15 08:53:03;;;;;;;3.80;2.20;;;;;;;;;;4391831;32;20081;-69
2022/07/15 08:55:30;;;;;;;4.32;2.53;;;;;;;;;;4391200;32;20095;-69
2022/07/15 08:57:57;;;;;;;4.30;2.53;;;;;;;;;;4378761;32;20551;-68
2022/07/15 09:00:28;;;;;;;4.15;2.55;;;;;;;;;;4391629;32;20072;-68
2022/07/15 09:03:04;;;;;;;2.60;2.30;;;;;;;;;;4391601;32;20069;-68
2022/07/15 09:05:32;;;;;;;;;;;;;;;;;;4404443;32;20093;-68
2022/07/15 09:08:15;;;;;;;2.58;2.30;;;;;;;;;;4390824;32;19984;-68
2022/07/15 09:10:42;;;;;;;3.70;2.50;;;;;;;;;;4379194;32;20078;-67
2022/07/15 09:13:10;;;;;;;3.37;2.50;;;;;;;;;;4391364;32;20173;-68
2022/07/15 09:15:40;;;;;;;3.90;2.67;;;;;;;;;;4379321;32;20157;-68
2022/07/15 09:18:22;;;;;;;3.12;2.55;;;;;;;;;;4378171;32;20073;-69
2022/07/15 09:20:49;;;;;;;5.40;2.62;;;;;;;;;;4391023;32;20072;-68
2022/07/15 09:23:20;;;;;;;2.80;2.47;;;;;;;;;;4390588;32;20074;-65
2022/07/15 09:25:51;;;;;;;3.45;2.55;;;;;;;;;;4390979;32;20085;-68
2022/07/15 09:28:18;;;;;;;4.60;2.50;;;;;;;;;;4391051;32;20078;-68
2022/07/15 09:33:39;;;;;;;2.78;2.30;;;;;;;;;;4391233;32;20085;-68
2022/07/15 09:36:16;;;;;;;2.62;2.40;;;;;;;;;;4378312;32;20157;-69
2022/07/15 09:38:47;;;;;;;3.50;2.50;;;;;;;;;;4366830;32;20172;-68
2022/07/15 09:41:21;;;;;;;3.20;2.90;;;;;;;;;;4390889;32;20516;-67
2022/07/15 09:43:51;;;;;;;4.10;3.00;;;;;;;;;;4391272;32;20483;-67
2022/07/15 09:46:19;;;;;;;5.87;3.22;;;;;;;;;;4391077;32;20104;-70
2022/07/15 09:48:47;;;;;;;5.03;2.85;;;;;;;;;;4386092;32;20480;-70
2022/07/15 09:51:14;;;;;;;3.95;2.40;;;;;;;;;;4398965;32;20126;-69
2022/07/15 09:53:42;;;;;;;2.75;2.55;;;;;;;;;;4373872;32;20074;-69
2022/07/15 09:56:12;;;;;;;3.58;2.55;;;;;;;;;;4385432;32;20535;-65
2022/07/15 09:58:41;;;;;;;4.12;2.70;;;;;;;;;;4387122;32;20066;-70
2022/07/15 10:01:08;;;;;;;3.05;2.42;;;;;;;;;;4393172;32;20507;-68
2022/07/15 10:03:37;;;;;;;3.65;2.58;;;;;;;;;;4397173;32;20088;-65
2022/07/15 10:06:04;;;;;;;6.50;3.00;;;;;;;;;;4398053;32;20074;-66
2022/07/15 10:08:32;;;;;;;4.00;2.70;;;;;;;;;;4385667;32;20178;-66
2022/07/15 10:10:59;;;;;;;5.72;3.30;;;;;;;;;;4392119;32;20196;-67
2022/07/15 10:14:03;;;;;;;6.87;2.62;;;;;;;;;;4388354;32;20096;-66
2022/07/15 10:16:48;;;;;;;4.75;2.97;;;;;;;;;;4348560;32;20197;-66
2022/07/15 10:19:35;;;;;;;4.07;3.00;;;;;;;;;;4388547;32;20093;-66
2022/07/15 10:22:20;;;;;;;3.30;3.00;;;;;;;;;;4388157;32;20546;-66
2022/07/15 10:25:16;;;;;;;4.05;2.83;;;;;;;;;;4363822;32;20117;-67
2022/07/15 10:27:55;;;;;;;4.22;2.67;;;;;;;;;;4390166;32;20489;-66
2022/07/15 10:30:24;;;;;;;4.03;2.90;;;;;;;;;;4391016;32;20181;-66
2022/07/15 10:33:07;;;;;;;8.38;2.83;;;;;;;;;;4390360;32;20161;-66
2022/07/15 10:35:51;;;;;;;4.82;2.80;;;;;;;;;;4377502;32;20440;-66
2022/07/15 10:38:33;;;;;;;3.47;2.78;;;;;;;;;;4389898;32;20078;-66
2022/07/15 10:41:01;;;;;;;3.28;2.80;;;;;;;;;;4389957;32;20082;-65
2022/07/15 10:43:50;;;;;;;5.80;3.33;;;;;;;;;;4390253;32;20081;-66
2022/07/15 10:46:16;;;;;;;6.05;3.37;;;;;;;;;;4390248;32;20084;-66
2022/07/15 10:48:47;;;;;;;4.65;3.25;;;;;;;;;;4391274;32;20445;-66
2022/07/15 10:51:36;;;;;;;2.90;2.60;;;;;;;;;;4389552;32;20077;-66
2022/07/15 10:54:16;;;;;;;6.57;3.00;;;;;;;;;;4389887;32;20073;-66
2022/07/15 10:56:51;;;;;;;6.70;3.30;;;;;;;;;;4391257;32;20096;-65
2022/07/15 10:59:19;;;;;;;5.78;3.22;;;;;;;;;;4390067;32;20085;-67
2022/07/15 11:01:56;;;;;;;3.03;2.58;;;;;;;;;;4391639;32;20098;-66
2022/07/15 11:04:26;;;;;;;4.40;3.00;;;;;;;;;;4391402;32;20074;-67
2022/07/15 11:07:13;;;;;;;6.40;2.92;;;;;;;;;;4389410;32;20068;-64
2022/07/15 11:09:48;;;;;;;3.60;2.90;;;;;;;;;;4385870;32;20166;-65
2022/07/15 11:12:27;;;;;;;3.25;2.90;;;;;;;;;;4405801;32;20089;-64
2022/07/15 11:14:57;;;;;;;3.12;2.80;;;;;;;;;;4391885;32;20057;-65
2022/07/15 11:17:38;;;;;;;4.03;3.28;;;;;;;;;;4391614;32;20066;-67
2022/07/15 11:20:11;;;;;;;4.72;3.15;;;;;;;;;;4389835;32;20452;-64
2022/07/15 11:22:44;;;;;;;6.03;2.92;;;;;;;;;;4378075;32;20142;-63
2022/07/15 11:25:26;;;;;;;4.68;3.00;;;;;;;;;;4389838;32;20181;-63
2022/07/15 11:28:13;;;;;;;4.45;3.05;;;;;;;;;;4391345;32;20069;-65
2022/07/15 11:30:53;;;;;;;4.80;2.97;;;;;;;;;;4389011;32;20063;-65
2022/07/15 11:33:25;;;;;;;3.42;3.00;;;;;;;;;;4377025;32;20144;-65
2022/07/15 11:35:58;;;;;;;4.12;2.87;;;;;;;;;;4367250;32;20097;-65
2022/07/15 11:38:27;;;;;;;3.92;2.80;;;;;;;;;;4404925;32;20123;-65
2022/07/15 11:46:31;;;;;;;6.28;3.53;;;;;;;;;;4408092;32;20077;-67
2022/07/15 11:48:58;;;;;;;3.72;3.25;;;;;;;;;;4407648;32;20532;-65
2022/07/15 11:51:30;;;;;;;5.18;3.33;;;;;;;;;;4395016;32;20081;-66
2022/07/15 11:53:58;;;;;;;4.25;3.28;;;;;;;;;;4394842;32;20077;-66
2022/07/15 11:56:26;;;;;;;3.65;3.00;;;;;;;;;;4393313;32;20082;-70
2022/07/15 11:58:54;;;;;;;3.80;3.15;;;;;;;;;;4393950;32;20073;-71
2022/07/15 12:01:24;;;;;;;4.80;3.40;;;;;;;;;;4396408;32;20076;-69
2022/07/15 12:03:53;;;;;;;5.37;3.10;;;;;;;;;;4395005;32;20069;-69
2022/07/15 12:06:25;;;;;;;4.37;3.17;;;;;;;;;;4396415;32;20073;-68
2022/07/15 12:09:00;;;;;;;3.50;3.20;;;;;;;;;;4406836;32;20081;-68
2022/07/15 12:11:32;;;;;;;3.78;3.22;;;;;;;;;;4392317;32;20078;-66
2022/07/15 12:14:11;;;;;;;4.47;3.15;;;;;;;;;;4379944;32;20504;-67
2022/07/15 12:16:43;;;;;;;5.43;3.60;;;;;;;;;;4392050;32;20156;-66
2022/07/15 12:19:13;;;;;;;4.40;3.47;;;;;;;;;;4392657;32;20517;-66
2022/07/15 12:21:43;;;;;;;4.35;3.40;;;;;;;;;;4394273;32;20094;-66
2022/07/15 12:24:15;;;;;;;4.05;3.40;;;;;;;;;;4406639;32;20488;-65
2022/07/15 12:27:02;;;;;;;5.20;3.53;;;;;;;;;;4407447;32;20503;-65
2022/07/15 12:29:31;;;;;;;4.70;3.42;;;;;;;;;;4382814;32;20097;-66
2022/07/15 12:32:07;;;;;;;4.70;3.45;;;;;;;;;;4379550;32;20534;-66
2022/07/15 12:34:58;;;;;;;4.68;3.70;;;;;;;;;;4369673;32;20101;-69
2022/07/15 12:37:28;;;;;;;4.32;3.25;;;;;;;;;;4382173;32;20089;-65
2022/07/15 12:40:01;;;;;;;4.72;3.70;;;;;;;;;;4395476;32;20070;-65
2022/07/15 12:42:31;;;;;;;7.75;3.55;;;;;;;;;;4372693;32;20105;-64
2022/07/15 12:45:19;;;;;;;5.22;3.60;;;;;;;;;;4411442;32;20073;-63
2022/07/15 12:48:06;;;;;;;4.25;3.30;;;;;;;;;;4417452;32;20065;-64
2022/07/15 12:50:51;;;;;;;5.85;3.70;;;;;;;;;;4418848;32;20104;-65
2022/07/15 12:53:19;;;;;;;4.27;3.50;;;;;;;;;;4419088;32;20081;-66
2022/07/15 12:55:49;;;;;;;6.90;3.17;;;;;;;;;;4411408;32;20176;-64
2022/07/15 12:58:18;;;;;;;3.47;3.00;;;;;;;;;;4406674;32;20073;-67
2022/07/15 13:00:45;;;;;;;4.50;3.17;;;;;;;;;;4405936;32;20080;-67
2022/07/15 13:03:15;;;;;;;6.10;2.95;;;;;;;;;;4398991;32;20085;-65
2022/07/15 13:05:47;;;;;;;3.62;2.70;;;;;;;;;;4405486;32;20085;-65
2022/07/15 13:08:36;;;;;;;3.85;2.90;;;;;;;;;;4385807;32;20080;-65
2022/07/15 13:11:04;;;;;;;4.37;3.20;;;;;;;;;;4392253;32;20109;-65
2022/07/15 13:13:35;;;;;;;4.45;3.15;;;;;;;;;;4392925;32;20153;-68
2022/07/15 13:16:03;;;;;;;7.93;3.35;;;;;;;;;;4393898;32;20092;-68
2022/07/15 13:18:30;;;;;;;3.75;3.10;;;;;;;;;;4391205;32;20156;-68
2022/07/15 13:20:58;;;;;;;3.83;2.78;;;;;;;;;;4392293;32;20074;-68
2022/07/15 13:23:26;;;;;;;4.82;3.33;;;;;;;;;;4391654;32;20081;-67
2022/07/15 13:25:53;;;;;;;4.60;3.17;;;;;;;;;;4391255;32;20073;-67
2022/07/15 13:28:21;;;;;;;3.47;2.67;;;;;;;;;;4392489;32;20088;-68
2022/07/15 13:30:49;;;;;;;3.35;2.83;;;;;;;;;;4378139;32;20605;-67
2022/07/15 13:33:16;;;;;;;3.87;2.90;;;;;;;;;;4391061;32;20086;-65
2022/07/15 13:35:43;;;;;;;4.75;3.33;;;;;;;;;;4391405;32;20081;-65
2022/07/15 13:38:10;;;;;;;9.57;3.40;;;;;;;;;;4380794;32;20511;-67
2022/07/15 13:40:37;;;;;;;3.37;2.83;;;;;;;;;;4393198;32;20093;-67
2022/07/15 13:43:03;;;;;;;3.45;2.78;;;;;;;;;;4394097;32;20137;-66
2022/07/15 13:45:30;;;;;;;5.28;3.45;;;;;;;;;;4378449;32;20070;-65
2022/07/15 13:47:57;;;;;;;4.05;2.95;;;;;;;;;;4390868;32;20073;-68
2022/07/15 13:53:09;;;;;;;3.73;3.00;;;;;;;;;;4391050;32;20157;-68
2022/07/15 13:55:39;;;;;;;7.03;3.12;;;;;;;;;;4365180;32;20077;-66
2022/07/15 13:58:06;;;;;;;3.60;3.10;;;;;;;;;;4390395;32;20113;-68
2022/07/15 14:00:35;;;;;;;5.43;3.25;;;;;;;;;;4365546;32;20093;-66
2022/07/15 14:03:02;;;;;;;4.12;3.20;;;;;;;;;;4390856;32;20073;-67
2022/07/15 14:05:29;;;;;;;3.37;2.80;;;;;;;;;;4395542;32;20109;-65
2022/07/15 14:07:55;;;;;;;3.90;2.87;;;;;;;;;;4406396;32;20080;-67
2022/07/15 14:10:22;;;;;;;3.70;3.30;;;;;;;;;;4374003;32;20184;-66
2022/07/15 14:12:50;;;;;;;4.72;3.25;;;;;;;;;;4371881;32;20065;-66
2022/07/15 14:15:17;;;;;;;3.67;3.10;;;;;;;;;;4394937;32;20074;-66
2022/07/15 14:17:44;;;;;;;4.22;3.35;;;;;;;;;;4395376;32;20076;-65
2022/07/15 14:20:14;;;;;;;4.40;3.40;;;;;;;;;;4391096;32;20070;-67
2022/07/15 14:22:40;;;;;;;4.30;3.47;;;;;;;;;;4405575;32;20081;-66
2022/07/15 14:25:08;;;;;;;5.87;3.62;;;;;;;;;;4392935;32;20066;-65
2022/07/15 14:27:35;;;;;;;5.60;3.33;;;;;;;;;;4388903;32;20086;-67
2022/07/15 14:30:03;;;;;;;3.95;3.55;;;;;;;;;;4375431;32;20117;-67
2022/07/15 14:32:30;;;;;;;6.80;3.40;;;;;;;;;;4388370;32;20157;-67
2022/07/15 14:34:56;;;;;;;5.12;3.65;;;;;;;;;;4400531;32;20188;-67
2022/07/15 14:37:23;;;;;;;5.75;3.58;;;;;;;;;;4375369;32;20094;-68
2022/07/15 14:39:50;;;;;;;5.07;3.30;;;;;;;;;;4387817;32;20256;-68
2022/07/15 14:42:17;;;;;;;5.47;3.25;;;;;;;;;;4389367;32;20156;-67
2022/07/15 14:44:44;;;;;;;5.20;3.60;;;;;;;;;;4389127;32;20099;-66
2022/07/15 14:47:11;;;;;;;5.40;3.20;;;;;;;;;;4389954;32;20070;-67
2022/07/15 14:49:37;;;;;;;5.80;3.60;;;;;;;;;;4389630;32;20073;-66
2022/07/15 14:52:05;;;;;;;4.22;3.33;;;;;;;;;;4377220;32;20074;-66
2022/07/15 14:54:31;;;;;;;5.78;3.28;;;;;;;;;;4377311;32;20501;-66
2022/07/15 14:56:58;;;;;;;6.28;3.35;;;;;;;;;;4401882;32;20105;-65
2022/07/15 14:59:25;;;;;;;4.15;3.40;;;;;;;;;;4390171;32;20069;-67
2022/07/15 15:01:53;;;;;;;6.72;3.90;;;;;;;;;;4389965;32;20116;-66
2022/07/15 15:04:20;;;;;;;5.15;3.70;;;;;;;;;;4402494;32;20086;-66
2022/07/15 15:06:47;;;;;;;4.25;3.50;;;;;;;;;;4389660;32;20145;-66
2022/07/15 15:09:13;;;;;;;4.28;3.17;;;;;;;;;;4389458;32;20077;-67
2022/07/15 15:11:40;;;;;;;4.18;2.95;;;;;;;;;;4389612;32;20073;-67